sensor_id;sensor_type;location;lat;lon;timestamp;pressure;altitude;pressure_sealevel;temperature;humidity
12349;BME280;5974;42.710;27.258;2023-09-07T00:00:58;100560.13;;;19.95;100.00
12349;BME280;5974;42.710;27.258;2023-09-07T00:03:27;100570.31;;;20.01;100.00
12349;BME280;5974;42.710;27.258;2023-09-07T00:05:54;100588.44;;;20.08;100.00
12349;BME280;5974;42.710;27.258;2023-09-07T00:08:21;100563.41;;;19.99;100.00
12349;BME280;5974;42.710;27.258;2023-09-07T00:10:49;100591.91;;;20.21;100.00
12349;BME280;5974;42.710;27.258;2023-09-07T00:13:16;100553.63;;;19.99;100.00
12349;BME280;5974;42.710;27.258;2023-09-07T00:15:43;100594.66;;;20.19;100.00
12349;BME280;5974;42.710;27.258;2023-09-07T00:18:10;100568.38;;;20.03;100.00
12349;BME280;5974;42.710;27.258;2023-09-07T00:20:38;100586.38;;;20.24;100.00
12349;BME280;5974;42.710;27.258;2023-09-07T00:23:05;100587.78;;;20.17;100.00
12349;BME280;5974;42.710;27.258;2023-09-07T00:25:32;100584.91;;;20.20;100.00
12349;BME280;5974;42.710;27.258;2023-09-07T00:27:59;100588.72;;;20.16;100.00
12349;BME280;5974;42.710;27.258;2023-09-07T00:30:26;100576.47;;;20.02;100.00
12349;BME280;5974;42.710;27.258;2023-09-07T00:32:53;100582.69;;;20.14;100.00
12349;BME280;5974;42.710;27.258;2023-09-07T00:35:20;100580.66;;;20.17;100.00
12349;BME280;5974;42.710;27.258;2023-09-07T00:37:48;100580.53;;;20.19;100.00
12349;BME280;5974;42.710;27.258;2023-09-07T00:40:15;100573.25;;;20.10;100.00
12349;BME280;5974;42.710;27.258;2023-09-07T00:42:42;100575.63;;;20.01;100.00
12349;BME280;5974;42.710;27.258;2023-09-07T00:45:09;100577.69;;;20.09;100.00
12349;BME280;5974;42.710;27.258;2023-09-07T00:47:37;100563.59;;;20.09;100.00
12349;BME280;5974;42.710;27.258;2023-09-07T00:50:05;100568.28;;;20.05;100.00
12349;BME280;5974;42.710;27.258;2023-09-07T00:52:32;100557.66;;;20.05;100.00
12349;BME280;5974;42.710;27.258;2023-09-07T00:55:01;100563.06;;;20.03;100.00
12349;BME280;5974;42.710;27.258;2023-09-07T00:57:29;100557.97;;;20.00;100.00
12349;BME280;5974;42.710;27.258;2023-09-07T00:59:57;100553.97;;;19.95;100.00
12349;BME280;5974;42.710;27.258;2023-09-07T01:02:24;100556.84;;;19.92;100.00
12349;BME280;5974;42.710;27.258;2023-09-07T01:04:51;100553.84;;;19.96;100.00
12349;BME280;5974;42.710;27.258;2023-09-07T01:07:20;100548.03;;;19.91;100.00
12349;BME280;5974;42.710;27.258;2023-09-07T01:09:54;100548.03;;;19.91;100.00
12349;BME280;5974;42.710;27.258;2023-09-07T01:12:23;100545.72;;;19.87;100.00
12349;BME280;5974;42.710;27.258;2023-09-07T01:14:50;100551.84;;;19.87;100.00
12349;BME280;5974;42.710;27.258;2023-09-07T01:17:18;100555.28;;;19.89;100.00
12349;BME280;5974;42.710;27.258;2023-09-07T01:19:48;100524.75;;;19.71;100.00
12349;BME280;5974;42.710;27.258;2023-09-07T01:22:19;100550.91;;;19.88;100.00
12349;BME280;5974;42.710;27.258;2023-09-07T01:24:48;100552.06;;;19.84;100.00
12349;BME280;5974;42.710;27.258;2023-09-07T01:27:17;100550.59;;;19.93;100.00
12349;BME280;5974;42.710;27.258;2023-09-07T01:29:44;100552.25;;;19.94;100.00
12349;BME280;5974;42.710;27.258;2023-09-07T01:32:10;100548.72;;;20.06;100.00
12349;BME280;5974;42.710;27.258;2023-09-07T01:34:39;100545.97;;;20.08;100.00
12349;BME280;5974;42.710;27.258;2023-09-07T01:37:06;100549.25;;;20.11;100.00
12349;BME280;5974;42.710;27.258;2023-09-07T01:39:34;100543.97;;;19.98;100.00
12349;BME280;5974;42.710;27.258;2023-09-07T01:42:01;100543.00;;;19.99;100.00
12349;BME280;5974;42.710;27.258;2023-09-07T01:44:28;100544.53;;;19.91;100.00
12349;BME280;5974;42.710;27.258;2023-09-07T01:46:55;100547.31;;;19.89;100.00
12349;BME280;5974;42.710;27.258;2023-09-07T01:49:22;100539.56;;;19.86;100.00
12349;BME280;5974;42.710;27.258;2023-09-07T01:51:51;100545.81;;;19.85;100.00
12349;BME280;5974;42.710;27.258;2023-09-07T01:54:18;100544.72;;;19.64;100.00
12349;BME280;5974;42.710;27.258;2023-09-07T01:56:46;100543.53;;;19.68;100.00
12349;BME280;5974;42.710;27.258;2023-09-07T01:59:13;100541.31;;;19.75;100.00
12349;BME280;5974;42.710;27.258;2023-09-07T02:01:39;100528.09;;;19.50;100.00
12349;BME280;5974;42.710;27.258;2023-09-07T02:04:06;100523.00;;;19.46;100.00
12349;BME280;5974;42.710;27.258;2023-09-07T02:06:33;100544.22;;;19.46;100.00
12349;BME280;5974;42.710;27.258;2023-09-07T02:09:00;100529.03;;;19.48;100.00
12349;BME280;5974;42.710;27.258;2023-09-07T02:11:27;100529.47;;;19.42;100.00
12349;BME280;5974;42.710;27.258;2023-09-07T02:13:55;100533.91;;;19.55;100.00
12349;BME280;5974;42.710;27.258;2023-09-07T02:16:22;100533.47;;;19.48;100.00
12349;BME280;5974;42.710;27.258;2023-09-07T02:18:50;100477.59;;;19.13;100.00
12349;BME280;5974;42.710;27.258;2023-09-07T02:21:17;100536.31;;;19.32;100.00
12349;BME280;5974;42.710;27.258;2023-09-07T02:23:44;100532.22;;;19.28;100.00
12349;BME280;5974;42.710;27.258;2023-09-07T02:26:11;100533.78;;;19.31;100.00
12349;BME280;5974;42.710;27.258;2023-09-07T02:28:37;100534.94;;;19.27;100.00
12349;BME280;5974;42.710;27.258;2023-09-07T02:31:24;100531.78;;;19.22;100.00
12349;BME280;5974;42.710;27.258;2023-09-07T02:33:51;100532.31;;;19.27;100.00
12349;BME280;5974;42.710;27.258;2023-09-07T02:36:18;100539.53;;;19.25;100.00
12349;BME280;5974;42.710;27.258;2023-09-07T02:38:45;100542.06;;;19.26;100.00
12349;BME280;5974;42.710;27.258;2023-09-07T02:41:11;100545.59;;;19.39;100.00
12349;BME280;5974;42.710;27.258;2023-09-07T02:43:38;100544.22;;;19.46;100.00
12349;BME280;5974;42.710;27.258;2023-09-07T02:46:05;100533.78;;;19.31;100.00
12349;BME280;5974;42.710;27.258;2023-09-07T02:48:33;100540.50;;;19.49;100.00
12349;BME280;5974;42.710;27.258;2023-09-07T02:51:00;100546.00;;;19.46;100.00
12349;BME280;5974;42.710;27.258;2023-09-07T02:53:27;100544.06;;;19.35;100.00
12349;BME280;5974;42.710;27.258;2023-09-07T02:55:54;100531.34;;;19.03;100.00
12349;BME280;5974;42.710;27.258;2023-09-07T02:58:22;100476.13;;;18.84;100.00
12349;BME280;5974;42.710;27.258;2023-09-07T03:01:07;100546.50;;;19.26;100.00
12349;BME280;5974;42.710;27.258;2023-09-07T03:03:37;100544.28;;;19.20;100.00
12349;BME280;5974;42.710;27.258;2023-09-07T03:06:09;100545.03;;;19.22;100.00
12349;BME280;5974;42.710;27.258;2023-09-07T03:08:36;100538.97;;;19.20;100.00
12349;BME280;5974;42.710;27.258;2023-09-07T03:11:03;100541.41;;;19.35;100.00
12349;BME280;5974;42.710;27.258;2023-09-07T03:13:31;100534.53;;;19.20;100.00
12349;BME280;5974;42.710;27.258;2023-09-07T03:15:58;100534.09;;;19.26;100.00
12349;BME280;5974;42.710;27.258;2023-09-07T03:18:25;100537.38;;;19.05;100.00
12349;BME280;5974;42.710;27.258;2023-09-07T03:21:06;100534.09;;;19.14;100.00
12349;BME280;5974;42.710;27.258;2023-09-07T03:23:33;100535.69;;;18.91;100.00
12349;BME280;5974;42.710;27.258;2023-09-07T03:26:00;100542.13;;;18.74;100.00
12349;BME280;5974;42.710;27.258;2023-09-07T03:28:27;100538.63;;;18.74;100.00
12349;BME280;5974;42.710;27.258;2023-09-07T03:30:54;100542.06;;;18.88;100.00
12349;BME280;5974;42.710;27.258;2023-09-07T03:33:23;100537.06;;;18.97;100.00
12349;BME280;5974;42.710;27.258;2023-09-07T03:35:49;100542.69;;;19.05;100.00
12349;BME280;5974;42.710;27.258;2023-09-07T03:38:18;100544.69;;;19.14;100.00
12349;BME280;5974;42.710;27.258;2023-09-07T03:40:45;100546.72;;;18.98;100.00
12349;BME280;5974;42.710;27.258;2023-09-07T03:43:12;100554.78;;;19.09;100.00
12349;BME280;5974;42.710;27.258;2023-09-07T03:45:39;100549.06;;;19.15;100.00
12349;BME280;5974;42.710;27.258;2023-09-07T03:48:06;100557.88;;;19.28;100.00
12349;BME280;5974;42.710;27.258;2023-09-07T03:50:34;100547.78;;;19.33;100.00
12349;BME280;5974;42.710;27.258;2023-09-07T03:53:02;100549.50;;;19.46;100.00
12349;BME280;5974;42.710;27.258;2023-09-07T03:55:40;100539.19;;;19.55;100.00
12349;BME280;5974;42.710;27.258;2023-09-07T03:58:07;100549.13;;;19.76;100.00
12349;BME280;5974;42.710;27.258;2023-09-07T04:00:34;100529.22;;;19.58;100.00
12349;BME280;5974;42.710;27.258;2023-09-07T04:03:02;100548.59;;;19.84;100.00
12349;BME280;5974;42.710;27.258;2023-09-07T04:05:28;100551.03;;;19.87;100.00
12349;BME280;5974;42.710;27.258;2023-09-07T04:11:04;100547.72;;;20.20;100.00
12349;BME280;5974;42.710;27.258;2023-09-07T04:13:31;100552.38;;;20.29;100.00
12349;BME280;5974;42.710;27.258;2023-09-07T04:15:58;100552.91;;;20.21;100.00
12349;BME280;5974;42.710;27.258;2023-09-07T04:18:25;100552.03;;;20.33;100.00
12349;BME280;5974;42.710;27.258;2023-09-07T04:20:52;100546.97;;;20.54;100.00
12349;BME280;5974;42.710;27.258;2023-09-07T04:23:19;100542.41;;;20.67;100.00
12349;BME280;5974;42.710;27.258;2023-09-07T04:25:46;100548.31;;;21.05;100.00
12349;BME280;5974;42.710;27.258;2023-09-07T04:28:14;100541.59;;;21.90;100.00
12349;BME280;5974;42.710;27.258;2023-09-07T04:30:41;100538.59;;;22.27;100.00
12349;BME280;5974;42.710;27.258;2023-09-07T04:33:08;100541.38;;;22.25;100.00
12349;BME280;5974;42.710;27.258;2023-09-07T04:35:35;100541.44;;;23.19;100.00
12349;BME280;5974;42.710;27.258;2023-09-07T04:38:02;100553.41;;;24.54;100.00
12349;BME280;5974;42.710;27.258;2023-09-07T04:40:29;100540.34;;;25.26;100.00
12349;BME280;5974;42.710;27.258;2023-09-07T04:42:56;100543.19;;;25.71;100.00
12349;BME280;5974;42.710;27.258;2023-09-07T04:45:46;100539.13;;;26.39;95.97
12349;BME280;5974;42.710;27.258;2023-09-07T04:48:13;100545.44;;;26.73;90.27
12349;BME280;5974;42.710;27.258;2023-09-07T04:50:40;100528.56;;;27.50;86.09
12349;BME280;5974;42.710;27.258;2023-09-07T04:53:07;100547.41;;;29.07;79.46
12349;BME280;5974;42.710;27.258;2023-09-07T04:55:37;100474.94;;;27.90;78.29
12349;BME280;5974;42.710;27.258;2023-09-07T04:58:04;100534.34;;;28.05;79.66
12349;BME280;5974;42.710;27.258;2023-09-07T05:00:31;100523.81;;;28.52;77.13
12349;BME280;5974;42.710;27.258;2023-09-07T05:02:59;100534.78;;;28.75;76.98
12349;BME280;5974;42.710;27.258;2023-09-07T05:05:26;100544.72;;;28.66;77.43
12349;BME280;5974;42.710;27.258;2023-09-07T05:08:17;100565.69;;;28.46;75.96
12349;BME280;5974;42.710;27.258;2023-09-07T05:10:44;100545.53;;;28.83;75.56
12349;BME280;5974;42.710;27.258;2023-09-07T05:13:11;100522.13;;;28.43;73.75
12349;BME280;5974;42.710;27.258;2023-09-07T05:15:47;100549.47;;;27.72;75.65
12349;BME280;5974;42.710;27.258;2023-09-07T05:18:15;100548.69;;;28.30;74.94
12349;BME280;5974;42.710;27.258;2023-09-07T05:20:42;100554.97;;;28.87;72.52
12349;BME280;5974;42.710;27.258;2023-09-07T05:23:10;100553.78;;;29.22;72.40
12349;BME280;5974;42.710;27.258;2023-09-07T05:28:46;100530.03;;;29.72;69.06
12349;BME280;5974;42.710;27.258;2023-09-07T05:33:59;100564.69;;;29.20;69.89
12349;BME280;5974;42.710;27.258;2023-09-07T05:36:27;100559.34;;;29.28;71.68
12349;BME280;5974;42.710;27.258;2023-09-07T05:38:53;100557.34;;;30.70;67.50
12349;BME280;5974;42.710;27.258;2023-09-07T05:41:20;100558.94;;;29.55;67.79
12349;BME280;5974;42.710;27.258;2023-09-07T05:43:47;100563.25;;;29.73;67.51
12349;BME280;5974;42.710;27.258;2023-09-07T05:46:14;100564.53;;;29.38;68.12
12349;BME280;5974;42.710;27.258;2023-09-07T05:48:41;100572.91;;;29.59;66.82
12349;BME280;5974;42.710;27.258;2023-09-07T05:51:09;100578.78;;;30.40;66.13
12349;BME280;5974;42.710;27.258;2023-09-07T05:53:36;100557.75;;;30.81;64.23
12349;BME280;5974;42.710;27.258;2023-09-07T05:56:03;100586.47;;;29.90;65.40
12349;BME280;5974;42.710;27.258;2023-09-07T05:58:30;100580.00;;;29.52;66.34
12349;BME280;5974;42.710;27.258;2023-09-07T06:00:57;100581.09;;;30.51;65.24
12349;BME280;5974;42.710;27.258;2023-09-07T06:03:24;100562.19;;;30.74;63.76
12349;BME280;5974;42.710;27.258;2023-09-07T06:06:09;100564.91;;;29.82;64.16
12349;BME280;5974;42.710;27.258;2023-09-07T06:08:36;100574.09;;;30.80;61.99
12349;BME280;5974;42.710;27.258;2023-09-07T06:11:02;100583.69;;;31.28;61.15
12349;BME280;5974;42.710;27.258;2023-09-07T06:13:30;100580.47;;;31.61;60.32
12349;BME280;5974;42.710;27.258;2023-09-07T06:15:57;100582.31;;;31.76;58.70
12349;BME280;5974;42.710;27.258;2023-09-07T06:18:25;100581.09;;;31.93;59.75
12349;BME280;5974;42.710;27.258;2023-09-07T06:20:52;100580.84;;;32.38;59.07
12349;BME280;5974;42.710;27.258;2023-09-07T06:23:31;100585.13;;;31.67;59.63
12349;BME280;5974;42.710;27.258;2023-09-07T06:25:58;100573.53;;;31.44;59.30
12349;BME280;5974;42.710;27.258;2023-09-07T06:28:43;100576.16;;;30.78;58.79
12349;BME280;5974;42.710;27.258;2023-09-07T06:31:10;100571.38;;;30.34;60.13
12349;BME280;5974;42.710;27.258;2023-09-07T06:33:37;100574.31;;;29.94;62.25
12349;BME280;5974;42.710;27.258;2023-09-07T06:36:04;100569.69;;;30.10;61.31
12349;BME280;5974;42.710;27.258;2023-09-07T06:41:17;100580.34;;;30.04;62.12
12349;BME280;5974;42.710;27.258;2023-09-07T06:43:44;100582.47;;;30.47;60.72
12349;BME280;5974;42.710;27.258;2023-09-07T06:46:11;100537.47;;;30.40;59.59
12349;BME280;5974;42.710;27.258;2023-09-07T06:48:38;100580.97;;;30.68;59.92
12349;BME280;5974;42.710;27.258;2023-09-07T06:51:05;100571.97;;;31.79;57.98
12349;BME280;5974;42.710;27.258;2023-09-07T06:53:35;100559.34;;;31.42;58.87
12349;BME280;5974;42.710;27.258;2023-09-07T06:56:03;100576.56;;;32.29;56.44
12349;BME280;5974;42.710;27.258;2023-09-07T06:58:32;100575.31;;;33.65;53.93
12349;BME280;5974;42.710;27.258;2023-09-07T07:01:00;100575.19;;;32.97;54.67
12349;BME280;5974;42.710;27.258;2023-09-07T07:03:28;100579.88;;;31.37;56.70
12349;BME280;5974;42.710;27.258;2023-09-07T07:05:56;100571.00;;;30.91;57.51
12349;BME280;5974;42.710;27.258;2023-09-07T07:08:23;100558.28;;;31.51;56.26
12349;BME280;5974;42.710;27.258;2023-09-07T07:10:51;100525.06;;;30.53;56.33
12349;BME280;5974;42.710;27.258;2023-09-07T07:13:18;100572.06;;;30.36;57.42
12349;BME280;5974;42.710;27.258;2023-09-07T07:15:45;100562.66;;;30.01;60.11
12349;BME280;5974;42.710;27.258;2023-09-07T07:18:12;100566.81;;;30.66;59.15
12349;BME280;5974;42.710;27.258;2023-09-07T07:20:41;100571.81;;;30.23;58.21
12349;BME280;5974;42.710;27.258;2023-09-07T07:23:09;100570.31;;;30.21;59.32
12349;BME280;5974;42.710;27.258;2023-09-07T07:25:36;100574.53;;;29.76;59.00
12349;BME280;5974;42.710;27.258;2023-09-07T07:28:05;100577.69;;;29.88;59.55
12349;BME280;5974;42.710;27.258;2023-09-07T07:30:33;100558.38;;;30.38;58.45
12349;BME280;5974;42.710;27.258;2023-09-07T07:33:00;100565.63;;;30.06;58.32
12349;BME280;5974;42.710;27.258;2023-09-07T07:35:29;100527.28;;;30.19;58.06
12349;BME280;5974;42.710;27.258;2023-09-07T07:37:56;100574.19;;;28.76;61.45
12349;BME280;5974;42.710;27.258;2023-09-07T07:40:23;100555.03;;;28.05;63.85
12349;BME280;5974;42.710;27.258;2023-09-07T07:42:52;100574.72;;;28.13;64.12
12349;BME280;5974;42.710;27.258;2023-09-07T07:45:20;100532.16;;;27.67;64.79
12349;BME280;5974;42.710;27.258;2023-09-07T07:47:48;100546.41;;;27.33;65.57
12349;BME280;5974;42.710;27.258;2023-09-07T07:50:15;100561.16;;;27.55;66.22
12349;BME280;5974;42.710;27.258;2023-09-07T07:52:42;100571.72;;;27.49;65.31
12349;BME280;5974;42.710;27.258;2023-09-07T07:55:10;100568.38;;;27.03;66.74
12349;BME280;5974;42.710;27.258;2023-09-07T07:57:37;100568.50;;;27.19;67.06
12349;BME280;5974;42.710;27.258;2023-09-07T08:00:06;100569.06;;;27.31;66.19
12349;BME280;5974;42.710;27.258;2023-09-07T08:02:36;100575.75;;;27.27;67.94
12349;BME280;5974;42.710;27.258;2023-09-07T08:05:03;100578.53;;;27.17;67.68
12349;BME280;5974;42.710;27.258;2023-09-07T08:07:30;100571.03;;;27.47;68.56
12349;BME280;5974;42.710;27.258;2023-09-07T08:09:57;100560.88;;;27.66;66.67
12349;BME280;5974;42.710;27.258;2023-09-07T08:12:24;100563.13;;;27.79;65.66
12349;BME280;5974;42.710;27.258;2023-09-07T08:14:51;100574.53;;;27.73;67.21
12349;BME280;5974;42.710;27.258;2023-09-07T08:17:18;100569.38;;;27.54;67.54
12349;BME280;5974;42.710;27.258;2023-09-07T08:19:47;100563.72;;;27.39;67.66
12349;BME280;5974;42.710;27.258;2023-09-07T08:22:16;100544.03;;;27.30;68.99
12349;BME280;5974;42.710;27.258;2023-09-07T08:24:43;100581.41;;;27.75;67.08
12349;BME280;5974;42.710;27.258;2023-09-07T08:27:12;100553.47;;;27.60;67.62
12349;BME280;5974;42.710;27.258;2023-09-07T08:29:43;100559.63;;;27.86;66.09
12349;BME280;5974;42.710;27.258;2023-09-07T08:32:12;100569.88;;;27.91;66.46
12349;BME280;5974;42.710;27.258;2023-09-07T08:34:40;100565.22;;;27.93;65.75
12349;BME280;5974;42.710;27.258;2023-09-07T08:37:08;100560.19;;;27.98;66.82
12349;BME280;5974;42.710;27.258;2023-09-07T08:39:35;100568.66;;;28.11;66.82
12349;BME280;5974;42.710;27.258;2023-09-07T08:42:04;100564.56;;;27.99;65.69
12349;BME280;5974;42.710;27.258;2023-09-07T08:44:33;100553.59;;;27.92;67.27
12349;BME280;5974;42.710;27.258;2023-09-07T08:47:01;100558.28;;;27.90;68.53
12349;BME280;5974;42.710;27.258;2023-09-07T08:49:29;100554.50;;;28.09;67.45
12349;BME280;5974;42.710;27.258;2023-09-07T08:51:59;100572.53;;;28.25;67.67
12349;BME280;5974;42.710;27.258;2023-09-07T08:54:27;100562.69;;;28.58;68.15
12349;BME280;5974;42.710;27.258;2023-09-07T08:56:56;100573.25;;;28.43;64.67
12349;BME280;5974;42.710;27.258;2023-09-07T08:59:23;100557.06;;;28.19;65.04
12349;BME280;5974;42.710;27.258;2023-09-07T09:01:50;100552.19;;;28.14;67.16
12349;BME280;5974;42.710;27.258;2023-09-07T09:04:17;100575.94;;;28.35;67.46
12349;BME280;5974;42.710;27.258;2023-09-07T09:06:46;100565.03;;;28.44;67.61
12349;BME280;5974;42.710;27.258;2023-09-07T09:09:22;100560.53;;;28.77;66.48
12349;BME280;5974;42.710;27.258;2023-09-07T09:11:51;100565.41;;;28.74;65.21
12349;BME280;5974;42.710;27.258;2023-09-07T09:14:18;100568.09;;;28.66;66.56
12349;BME280;5974;42.710;27.258;2023-09-07T09:16:51;100553.66;;;28.67;67.26
12349;BME280;5974;42.710;27.258;2023-09-07T09:19:18;100552.97;;;28.73;67.80
12349;BME280;5974;42.710;27.258;2023-09-07T09:21:45;100546.88;;;28.63;67.07
12349;BME280;5974;42.710;27.258;2023-09-07T09:24:12;100549.94;;;28.68;66.64
12349;BME280;5974;42.710;27.258;2023-09-07T09:26:40;100568.09;;;28.90;64.04
12349;BME280;5974;42.710;27.258;2023-09-07T09:29:09;100523.84;;;28.68;61.73
12349;BME280;5974;42.710;27.258;2023-09-07T09:31:36;100551.91;;;29.22;62.09
12349;BME280;5974;42.710;27.258;2023-09-07T09:34:05;100544.25;;;29.58;62.19
12349;BME280;5974;42.710;27.258;2023-09-07T09:36:33;100546.19;;;29.33;64.57
12349;BME280;5974;42.710;27.258;2023-09-07T09:39:01;100558.53;;;29.75;61.19
12349;BME280;5974;42.710;27.258;2023-09-07T09:41:30;100524.59;;;29.88;60.62
12349;BME280;5974;42.710;27.258;2023-09-07T09:43:59;100549.88;;;29.87;61.26
12349;BME280;5974;42.710;27.258;2023-09-07T09:46:31;100561.88;;;29.85;60.26
12349;BME280;5974;42.710;27.258;2023-09-07T09:49:16;100548.34;;;29.46;58.05
12349;BME280;5974;42.710;27.258;2023-09-07T09:51:45;100547.88;;;29.18;57.04
12349;BME280;5974;42.710;27.258;2023-09-07T09:54:13;100530.03;;;29.01;58.39
12349;BME280;5974;42.710;27.258;2023-09-07T09:56:41;100498.03;;;29.30;59.52
12349;BME280;5974;42.710;27.258;2023-09-07T09:59:08;100543.06;;;29.61;59.49
12349;BME280;5974;42.710;27.258;2023-09-07T10:01:41;100529.69;;;29.75;57.39
12349;BME280;5974;42.710;27.258;2023-09-07T10:04:10;100531.06;;;29.71;57.70
12349;BME280;5974;42.710;27.258;2023-09-07T10:06:38;100508.31;;;29.74;57.11
12349;BME280;5974;42.710;27.258;2023-09-07T10:09:06;100540.28;;;30.16;57.07
12349;BME280;5974;42.710;27.258;2023-09-07T10:11:37;100493.34;;;29.63;56.16
12349;BME280;5974;42.710;27.258;2023-09-07T10:14:06;100516.47;;;29.96;55.98
12349;BME280;5974;42.710;27.258;2023-09-07T10:17:00;100522.66;;;30.05;56.13
12349;BME280;5974;42.710;27.258;2023-09-07T10:19:29;100517.31;;;29.97;54.88
12349;BME280;5974;42.710;27.258;2023-09-07T10:21:56;100520.59;;;29.76;55.55
12349;BME280;5974;42.710;27.258;2023-09-07T10:24:24;100514.00;;;29.40;56.01
12349;BME280;5974;42.710;27.258;2023-09-07T10:26:59;100517.34;;;29.50;55.23
12349;BME280;5974;42.710;27.258;2023-09-07T10:29:27;100500.13;;;29.59;55.36
12349;BME280;5974;42.710;27.258;2023-09-07T10:31:55;100502.97;;;29.96;54.00
12349;BME280;5974;42.710;27.258;2023-09-07T10:34:34;100502.31;;;29.55;53.65
12349;BME280;5974;42.710;27.258;2023-09-07T10:37:03;100495.97;;;29.40;55.46
12349;BME280;5974;42.710;27.258;2023-09-07T10:39:31;100502.63;;;29.61;56.72
12349;BME280;5974;42.710;27.258;2023-09-07T10:41:58;100511.38;;;29.63;54.51
12349;BME280;5974;42.710;27.258;2023-09-07T10:44:25;100502.94;;;29.66;54.19
12349;BME280;5974;42.710;27.258;2023-09-07T10:46:55;100492.47;;;29.71;54.56
12349;BME280;5974;42.710;27.258;2023-09-07T10:49:23;100506.63;;;29.73;52.73
12349;BME280;5974;42.710;27.258;2023-09-07T10:51:50;100499.00;;;29.84;53.59
12349;BME280;5974;42.710;27.258;2023-09-07T10:54:18;100479.78;;;29.79;52.37
12349;BME280;5974;42.710;27.258;2023-09-07T10:56:45;100499.81;;;29.93;53.22
12349;BME280;5974;42.710;27.258;2023-09-07T10:59:13;100487.75;;;29.73;52.35
12349;BME280;5974;42.710;27.258;2023-09-07T11:01:40;100499.03;;;30.07;51.92
12349;BME280;5974;42.710;27.258;2023-09-07T11:04:09;100505.50;;;29.98;52.32
12349;BME280;5974;42.710;27.258;2023-09-07T11:06:37;100493.72;;;29.99;52.83
12349;BME280;5974;42.710;27.258;2023-09-07T11:09:05;100474.75;;;30.07;53.18
12349;BME280;5974;42.710;27.258;2023-09-07T11:11:35;100500.25;;;30.27;52.85
12349;BME280;5974;42.710;27.258;2023-09-07T11:14:02;100490.84;;;30.23;52.55
12349;BME280;5974;42.710;27.258;2023-09-07T11:16:30;100478.47;;;30.29;52.51
12349;BME280;5974;42.710;27.258;2023-09-07T11:18:57;100456.56;;;30.54;52.48
12349;BME280;5974;42.710;27.258;2023-09-07T11:21:27;100483.88;;;30.89;51.60
12349;BME280;5974;42.710;27.258;2023-09-07T11:23:54;100476.31;;;30.70;51.25
12349;BME280;5974;42.710;27.258;2023-09-07T11:26:20;100473.44;;;30.26;51.92
12349;BME280;5974;42.710;27.258;2023-09-07T11:28:48;100466.97;;;30.57;52.23
12349;BME280;5974;42.710;27.258;2023-09-07T11:31:18;100476.22;;;30.63;51.22
12349;BME280;5974;42.710;27.258;2023-09-07T11:33:46;100455.03;;;30.52;51.11
12349;BME280;5974;42.710;27.258;2023-09-07T11:36:13;100482.59;;;30.47;51.23
12349;BME280;5974;42.710;27.258;2023-09-07T11:38:43;100469.13;;;30.17;51.34
12349;BME280;5974;42.710;27.258;2023-09-07T11:41:11;100471.53;;;29.81;51.32
12349;BME280;5974;42.710;27.258;2023-09-07T11:43:38;100468.91;;;29.65;52.28
12349;BME280;5974;42.710;27.258;2023-09-07T11:46:05;100470.38;;;29.75;52.45
12349;BME280;5974;42.710;27.258;2023-09-07T11:48:32;100473.22;;;29.82;53.28
12349;BME280;5974;42.710;27.258;2023-09-07T11:51:00;100463.56;;;29.95;53.97
12349;BME280;5974;42.710;27.258;2023-09-07T11:53:36;100448.44;;;30.09;53.89
12349;BME280;5974;42.710;27.258;2023-09-07T11:56:04;100457.31;;;29.95;54.19
12349;BME280;5974;42.710;27.258;2023-09-07T11:58:31;100457.97;;;29.97;54.08
12349;BME280;5974;42.710;27.258;2023-09-07T12:00:58;100456.81;;;29.91;54.65
12349;BME280;5974;42.710;27.258;2023-09-07T12:03:24;100451.38;;;29.99;54.73
12349;BME280;5974;42.710;27.258;2023-09-07T12:05:51;100454.34;;;29.82;55.85
12349;BME280;5974;42.710;27.258;2023-09-07T12:08:19;100457.19;;;29.88;56.45
12349;BME280;5974;42.710;27.258;2023-09-07T12:10:45;100441.69;;;29.51;55.86
12349;BME280;5974;42.710;27.258;2023-09-07T12:13:14;100458.97;;;29.65;55.74
12349;BME280;5974;42.710;27.258;2023-09-07T12:15:41;100451.03;;;29.72;55.92
12349;BME280;5974;42.710;27.258;2023-09-07T12:18:07;100449.69;;;29.29;55.61
12349;BME280;5974;42.710;27.258;2023-09-07T12:20:34;100454.03;;;29.38;56.36
12349;BME280;5974;42.710;27.258;2023-09-07T12:23:01;100468.09;;;29.09;56.37
12349;BME280;5974;42.710;27.258;2023-09-07T12:25:28;100441.56;;;28.74;57.25
12349;BME280;5974;42.710;27.258;2023-09-07T12:27:55;100452.03;;;29.32;57.69
12349;BME280;5974;42.710;27.258;2023-09-07T12:30:29;100449.69;;;29.68;56.89
12349;BME280;5974;42.710;27.258;2023-09-07T12:32:56;100457.44;;;29.71;56.22
12349;BME280;5974;42.710;27.258;2023-09-07T12:35:32;100452.56;;;29.66;55.36
12349;BME280;5974;42.710;27.258;2023-09-07T12:38:40;100443.13;;;29.23;56.86
12349;BME280;5974;42.710;27.258;2023-09-07T12:40:50;100451.75;;;29.57;59.13
12349;BME280;5974;42.710;27.258;2023-09-07T12:43:17;100456.91;;;29.36;57.16
12349;BME280;5974;42.710;27.258;2023-09-07T12:45:45;100457.31;;;29.25;57.87
12349;BME280;5974;42.710;27.258;2023-09-07T12:48:12;100464.59;;;29.00;58.56
12349;BME280;5974;42.710;27.258;2023-09-07T12:50:39;100461.06;;;28.92;58.97
12349;BME280;5974;42.710;27.258;2023-09-07T12:53:06;100458.06;;;28.63;58.13
12349;BME280;5974;42.710;27.258;2023-09-07T12:55:33;100452.34;;;28.41;58.71
12349;BME280;5974;42.710;27.258;2023-09-07T12:58:00;100453.16;;;28.58;59.70
12349;BME280;5974;42.710;27.258;2023-09-07T13:00:27;100452.69;;;28.79;60.16
12349;BME280;5974;42.710;27.258;2023-09-07T13:02:56;100456.22;;;28.71;59.77